Time;durP1;ratioP1;P1;durP2;ratioP2;P2;SDS_P1;SDS_P2;PMS_P1;PMS_P2;Temp;Humidity;BMP_temperature;BMP_pressure;BME280_temperature;BME280_humidity;BME280_pressure;Samples;Min_cycle;Max_cycle;Signal;HPM_P1;HPM_P2
2021/08/04 00:02:13;;;;;;;15.78;7.03;;;;;;;17.80;77.14;100713.22;1685648;84;21229;-59
2021/08/04 00:05:19;;;;;;;12.98;5.90;;;;;;;17.80;77.21;100715.13;1707979;83;21351;-58
2021/08/04 00:08:24;;;;;;;11.73;6.28;;;;;;;17.80;77.28;100707.68;1687544;84;21773;-59
2021/08/04 00:11:29;;;;;;;14.40;6.45;;;;;;;17.81;77.13;100712.66;1729141;82;21414;-59
2021/08/04 00:14:36;;;;;;;13.13;5.90;;;;;;;17.74;77.07;100707.68;1728817;83;21221;-59
2021/08/04 00:17:42;;;;;;;15.63;6.25;;;;;;;17.72;77.28;100713.95;1729276;82;21213;-59
2021/08/04 00:20:48;;;;;;;12.47;6.10;;;;;;;17.72;77.23;100717.59;1728929;83;21466;-59
2021/08/04 00:23:55;;;;;;;13.20;6.22;;;;;;;17.69;77.14;100711.62;1683213;85;21821;-59
2021/08/04 00:27:01;;;;;;;18.17;6.17;;;;;;;17.67;77.20;100710.97;1713572;83;21374;-59
2021/08/04 00:30:12;;;;;;;15.35;6.10;;;;;;;17.60;77.16;100714.30;1734279;83;21375;-59
2021/08/04 00:33:18;;;;;;;14.05;6.05;;;;;;;17.58;77.39;100715.03;1692701;83;21229;-58
2021/08/04 00:36:26;;;;;;;13.72;6.22;;;;;;;17.58;77.51;100713.65;1663787;85;21295;-59
2021/08/04 00:39:31;;;;;;;13.45;6.30;;;;;;;17.58;77.54;100720.02;1729116;83;21213;-59
2021/08/04 00:42:37;;;;;;;11.40;5.87;;;;;;;17.59;77.48;100726.41;1686046;84;21364;-59
2021/08/04 00:45:43;;;;;;;10.18;6.03;;;;;;;17.59;77.22;100726.41;1664583;85;21278;-59
2021/08/04 00:48:47;;;;;;;14.25;6.47;;;;;;;17.50;76.94;100726.31;1734483;82;21445;-59
2021/08/04 00:51:55;;;;;;;14.30;7.20;;;;;;;17.42;77.06;100725.11;1728763;83;21284;-59
2021/08/04 00:55:04;;;;;;;18.48;8.20;;;;;;;17.39;77.43;100722.77;1690447;84;21304;-59
2021/08/04 00:58:09;;;;;;;17.32;9.78;;;;;;;17.36;77.37;100728.72;1658392;86;21233;-59
2021/08/04 01:01:43;;;;;;;13.30;8.43;;;;;;;17.32;77.49;100726.04;1660531;86;21245;-59
2021/08/04 01:05:00;;;;;;;16.32;8.33;;;;;;;17.33;77.48;100729.15;1664235;85;21401;-59
2021/08/04 01:08:17;;;;;;;14.70;8.95;;;;;;;17.32;77.18;100728.28;1632616;87;21233;-58
2021/08/04 01:11:24;;;;;;;12.85;7.87;;;;;;;17.26;77.13;100743.49;1681876;84;21304;-59
2021/08/04 01:14:31;;;;;;;13.25;7.95;;;;;;;17.21;77.22;100735.83;1649111;86;21223;-59
2021/08/04 01:17:36;;;;;;;12.13;7.72;;;;;;;17.21;77.45;100743.27;1634577;88;21751;-59
2021/08/04 01:20:41;;;;;;;10.00;6.80;;;;;;;17.15;77.30;100751.03;1631306;87;21859;-58
2021/08/04 01:24:01;;;;;;;11.45;6.67;;;;;;;17.12;77.36;100745.39;1618999;88;21430;-58
2021/08/04 01:27:06;;;;;;;9.90;6.40;;;;;;;17.12;77.30;100743.15;1637012;87;21431;-59
2021/08/04 01:30:14;;;;;;;10.18;6.78;;;;;;;17.09;77.28;100743.57;1687439;85;21263;-59
2021/08/04 01:33:20;;;;;;;12.78;6.75;;;;;;;17.10;77.51;100745.27;1672933;85;21319;-59
2021/08/04 01:36:25;;;;;;;8.63;6.17;;;;;;;17.11;77.42;100740.91;1646713;87;21374;-59
2021/08/04 01:39:34;;;;;;;8.33;6.45;;;;;;;17.06;77.27;100748.14;1679522;85;21311;-59
2021/08/04 01:42:43;;;;;;;11.70;6.70;;;;;;;16.99;77.27;100748.13;1648223;86;21768;-58
2021/08/04 01:45:49;;;;;;;10.98;6.78;;;;;;;16.92;77.44;100745.85;1646662;87;21253;-59
2021/08/04 01:48:57;;;;;;;11.10;6.50;;;;;;;16.92;78.14;100738.11;1635580;86;21756;-59
2021/08/04 01:52:04;;;;;;;7.85;6.15;;;;;;;16.96;78.20;100746.30;1687455;85;21271;-59
2021/08/04 01:55:12;;;;;;;8.58;5.67;;;;;;;16.95;78.29;100748.20;1676642;85;21236;-58
2021/08/04 01:58:17;;;;;;;11.28;6.62;;;;;;;16.93;78.35;100753.62;1682671;85;21236;-58
2021/08/04 02:01:26;;;;;;;10.32;6.47;;;;;;;16.90;78.48;100756.30;1687740;84;21263;-59
2021/08/04 02:04:32;;;;;;;8.73;5.72;;;;;;;16.87;78.55;100762.77;1653682;86;21370;-58
2021/08/04 02:07:50;;;;;;;8.83;5.65;;;;;;;16.85;78.57;100769.02;1659901;81;21266;-58
2021/08/04 02:11:27;;;;;;;9.55;5.80;;;;;;;16.81;78.62;100769.95;1666894;85;21250;-59
2021/08/04 02:14:52;;;;;;;10.32;5.78;;;;;;;16.80;78.63;100776.56;1666034;86;21250;-58
2021/08/04 02:18:01;;;;;;;8.63;5.60;;;;;;;16.79;78.83;100780.36;1670798;85;21385;-58
2021/08/04 02:21:08;;;;;;;11.22;5.70;;;;;;;16.81;78.87;100778.80;1658696;85;21409;-58
2021/08/04 02:24:16;;;;;;;12.53;6.03;;;;;;;16.80;78.68;100778.46;1696721;84;21238;-59
2021/08/04 02:27:22;;;;;;;8.03;5.80;;;;;;;16.77;78.60;100783.02;1702293;84;21218;-59
2021/08/04 02:30:31;;;;;;;8.20;5.60;;;;;;;16.74;78.71;100780.16;1708928;83;21230;-58
2021/08/04 02:33:36;;;;;;;8.35;6.20;;;;;;;16.73;78.83;100780.36;1734400;82;21896;-58
2021/08/04 02:36:41;;;;;;;10.20;6.37;;;;;;;16.72;79.01;100781.40;1734082;82;21359;-59
2021/08/04 02:39:46;;;;;;;8.25;5.92;;;;;;;16.72;79.31;100789.17;1691548;84;21387;-58
2021/08/04 02:42:53;;;;;;;8.08;5.78;;;;;;;16.74;79.50;100791.22;1723407;82;21286;-59
2021/08/04 02:45:59;;;;;;;9.83;6.28;;;;;;;16.76;79.70;100802.06;1721237;83;21329;-59
2021/08/04 02:49:05;;;;;;;10.88;6.37;;;;;;;16.81;80.03;100803.14;1720551;83;21355;-59
2021/08/04 02:52:14;;;;;;;10.68;6.67;;;;;;;16.88;79.93;100804.03;1722679;83;21355;-59
2021/08/04 02:55:20;;;;;;;8.08;6.25;;;;;;;16.89;79.59;100804.87;1665717;86;21355;-58
2021/08/04 02:58:27;;;;;;;7.72;6.35;;;;;;;16.86;79.48;100806.14;1665629;86;21215;-59
2021/08/04 03:01:32;;;;;;;9.15;6.62;;;;;;;16.89;79.40;100814.55;1665582;86;21259;-56
2021/08/04 03:04:38;;;;;;;9.53;6.17;;;;;;;16.91;79.25;100817.97;1665519;86;21219;-60
2021/08/04 03:07:45;;;;;;;9.95;6.45;;;;;;;16.90;79.12;100817.14;1665805;86;21279;-60
2021/08/04 03:10:53;;;;;;;8.68;6.08;;;;;;;16.94;79.04;100810.64;1661492;86;21305;-61
2021/08/04 03:13:58;;;;;;;12.28;5.92;;;;;;;16.98;78.97;100819.69;1661411;86;21241;-61
2021/08/04 03:17:04;;;;;;;8.53;5.70;;;;;;;17.07;78.84;100819.86;1661360;86;21336;-61
2021/08/04 03:20:10;;;;;;;8.83;6.03;;;;;;;17.18;78.49;100813.72;1661075;86;21234;-61
2021/08/04 03:23:15;;;;;;;11.95;5.72;;;;;;;17.26;78.17;100809.91;1702735;83;21220;-61
2021/08/04 03:26:20;;;;;;;8.43;6.45;;;;;;;17.33;77.81;100817.16;1716439;83;21245;-61
2021/08/04 03:29:27;;;;;;;8.83;5.72;;;;;;;17.41;77.53;100819.73;1681685;85;21760;-61
2021/08/04 03:32:37;;;;;;;11.68;6.20;;;;;;;17.50;77.27;100821.82;1709723;82;21355;-60
2021/08/04 03:35:44;;;;;;;11.50;6.72;;;;;;;17.57;76.93;100821.28;1646744;87;21241;-60
2021/08/04 03:38:49;;;;;;;11.30;6.72;;;;;;;17.62;76.60;100831.20;1646204;87;21351;-60
2021/08/04 03:41:56;;;;;;;11.45;6.95;;;;;;;17.71;76.34;100829.96;1646515;87;21868;-60
2021/08/04 03:45:01;;;;;;;10.05;6.45;;;;;;;17.78;76.08;100828.03;1646659;87;21513;-60
2021/08/04 03:48:08;;;;;;;9.10;6.53;;;;;;;17.88;75.90;100831.25;1654179;87;21215;-60
2021/08/04 03:51:15;;;;;;;11.80;6.95;;;;;;;17.97;75.79;100829.96;1672330;85;21244;-60
2021/08/04 03:54:23;;;;;;;14.45;7.00;;;;;;;18.04;75.68;100836.38;1641022;87;21239;-60
2021/08/04 03:57:29;;;;;;;8.83;6.62;;;;;;;18.15;75.57;100839.88;1683287;85;21709;-61
2021/08/04 04:00:35;;;;;;;15.38;7.08;;;;;;;18.23;75.53;100841.05;1648132;86;21925;-60
2021/08/04 04:03:41;;;;;;;14.45;7.03;;;;;;;18.34;75.52;100845.95;1634670;88;21380;-61
2021/08/04 04:06:48;;;;;;;10.28;7.62;;;;;;;18.44;75.49;100846.38;1646325;86;21311;-60
2021/08/04 04:09:53;;;;;;;10.25;6.90;;;;;;;18.54;74.97;100840.39;1622896;83;21787;-58
2021/08/04 04:12:59;;;;;;;12.37;7.30;;;;;;;18.62;74.35;100839.63;1639305;87;21370;-59
2021/08/04 04:16:06;;;;;;;12.15;6.90;;;;;;;18.71;73.72;100837.49;1639387;87;21331;-58
2021/08/04 04:19:14;;;;;;;7.42;6.55;;;;;;;18.80;72.83;100843.97;1639295;87;21385;-59
2021/08/04 04:22:20;;;;;;;8.90;6.75;;;;;;;18.87;72.36;100840.63;1639036;87;21307;-59
2021/08/04 04:25:25;;;;;;;9.70;7.10;;;;;;;18.88;71.94;100845.65;1643795;87;21902;-59
2021/08/04 04:28:31;;;;;;;9.55;6.65;;;;;;;18.87;71.78;100850.86;1692369;84;21240;-58
2021/08/04 04:31:36;;;;;;;7.70;6.42;;;;;;;18.88;71.36;100847.90;1709567;83;21283;-58
2021/08/04 04:34:43;;;;;;;14.07;6.42;;;;;;;18.93;71.01;100845.30;1672625;85;21204;-59
2021/08/04 04:37:51;;;;;;;7.45;5.87;;;;;;;19.03;70.97;100848.99;1709551;83;21757;-59
2021/08/04 04:40:59;;;;;;;9.85;6.53;;;;;;;19.13;71.02;100850.25;1671064;85;21271;-58
2021/08/04 04:44:06;;;;;;;9.85;6.33;;;;;;;19.21;70.99;100850.53;1646133;87;21886;-59
2021/08/04 04:47:13;;;;;;;6.55;5.85;;;;;;;19.29;71.07;100848.41;1709185;84;21338;-60
2021/08/04 04:50:20;;;;;;;10.13;6.80;;;;;;;19.40;71.03;100847.36;1709962;84;21260;-60
2021/08/04 04:53:27;;;;;;;8.15;6.62;;;;;;;19.53;71.06;100858.41;1709749;84;21354;-59
2021/08/04 04:56:36;;;;;;;8.83;6.40;;;;;;;19.65;70.88;100857.48;1670305;85;21899;-58
2021/08/04 04:59:42;;;;;;;8.43;6.20;;;;;;;19.72;70.60;100850.49;1654196;85;21799;-60
2021/08/04 05:02:49;;;;;;;9.68;5.95;;;;;;;19.81;70.61;100854.70;1665224;86;21812;-60
2021/08/04 05:05:56;;;;;;;7.67;5.92;;;;;;;19.92;70.63;100862.31;1665838;86;21757;-63
2021/08/04 05:09:01;;;;;;;9.35;5.83;;;;;;;20.06;70.63;100870.33;1665678;86;21862;-60
2021/08/04 05:12:09;;;;;;;9.43;5.50;;;;;;;20.19;70.39;100863.84;1670287;82;21460;-59
2021/08/04 05:15:15;;;;;;;7.42;5.67;;;;;;;20.33;70.14;100866.82;1671048;85;21480;-58
2021/08/04 05:18:21;;;;;;;9.75;5.17;;;;;;;20.42;69.87;100867.70;1671535;85;21270;-58
2021/08/04 05:21:28;;;;;;;8.85;5.90;;;;;;;20.52;69.66;100868.57;1683378;84;21174;-59
2021/08/04 05:24:35;;;;;;;11.18;5.33;;;;;;;20.61;69.36;100868.61;1662960;84;21945;-60
2021/08/04 05:27:41;;;;;;;6.83;5.25;;;;;;;20.71;69.27;100870.30;1685710;84;21411;-58
2021/08/04 05:30:46;;;;;;;10.28;5.75;;;;;;;20.79;68.93;100867.22;1693905;84;21261;-57
2021/08/04 05:33:51;;;;;;;7.42;5.12;;;;;;;20.90;68.66;100867.84;1675239;84;21231;-59
2021/08/04 05:36:57;;;;;;;14.95;5.28;;;;;;;20.99;68.51;100869.30;1706996;83;21251;-58
2021/08/04 05:40:02;;;;;;;10.80;4.92;;;;;;;21.13;68.52;100884.77;1682917;84;21849;-59
2021/08/04 05:43:07;;;;;;;6.90;5.35;;;;;;;21.26;67.37;100887.40;1654812;86;21850;-59
2021/08/04 05:46:15;;;;;;;6.42;4.40;;;;;;;21.37;66.71;100894.97;1706683;81;21816;-58
2021/08/04 05:49:22;;;;;;;7.28;4.50;;;;;;;21.45;66.37;100893.79;1729460;81;21331;-58
2021/08/04 05:52:29;;;;;;;5.45;4.20;;;;;;;21.53;65.62;100895.70;1715806;82;21257;-59
2021/08/04 05:55:35;;;;;;;8.95;4.53;;;;;;;21.60;64.99;100891.43;1707710;84;21370;-58
2021/08/04 05:58:40;;;;;;;8.45;4.62;;;;;;;21.69;64.69;100892.26;1712784;83;21367;-60
2021/08/04 06:01:48;;;;;;;6.12;4.28;;;;;;;21.76;64.75;100899.17;1720217;82;21349;-59
2021/08/04 06:04:57;;;;;;;10.68;4.70;;;;;;;21.84;64.63;100899.70;1741207;82;21330;-58
2021/08/04 06:08:10;;;;;;;10.40;4.15;;;;;;;21.94;64.02;100904.17;1724106;82;21322;-59
2021/08/04 06:11:18;;;;;;;9.63;4.65;;;;;;;22.03;63.51;100904.14;1701426;83;21403;-58
2021/08/04 06:14:23;;;;;;;5.90;5.00;;;;;;;22.11;63.15;100905.19;1677441;83;21248;-58
2021/08/04 06:17:29;;;;;;;7.83;4.80;;;;;;;22.20;63.18;100899.56;1668998;84;21750;-59
2021/08/04 06:20:38;;;;;;;8.53;4.15;;;;;;;22.30;63.07;100901.77;1684068;83;21839;-60
2021/08/04 06:23:48;;;;;;;6.65;4.62;;;;;;;22.42;63.24;100900.41;1688542;83;21414;-59
2021/08/04 06:26:58;;;;;;;10.90;4.33;;;;;;;22.54;62.36;100895.70;1685769;84;21174;-60
2021/08/04 06:30:03;;;;;;;7.20;4.20;;;;;;;22.64;61.80;100896.83;1676090;83;21203;-59
2021/08/04 06:33:13;;;;;;;7.12;3.98;;;;;;;22.75;61.61;100894.59;1687087;83;21197;-60
2021/08/04 06:36:21;;;;;;;6.87;3.90;;;;;;;22.83;60.68;100889.17;1701319;83;21204;-59
2021/08/04 06:39:31;;;;;;;5.58;3.40;;;;;;;22.92;60.09;100888.56;1677963;83;21173;-59
2021/08/04 06:42:39;;;;;;;6.70;3.60;;;;;;;23.03;58.21;100895.22;1654571;85;21854;-59
2021/08/04 06:45:46;;;;;;;8.25;4.55;;;;;;;23.05;58.30;100891.11;1662237;85;21248;-59
2021/08/04 06:48:52;;;;;;;6.42;3.90;;;;;;;23.09;58.29;100886.71;1672445;85;21384;-60
2021/08/04 06:51:57;;;;;;;5.72;3.33;;;;;;;23.17;58.45;100882.69;1677784;85;21352;-59
2021/08/04 06:55:03;;;;;;;5.58;3.95;;;;;;;23.27;58.79;100887.14;1678527;85;21892;-59
2021/08/04 06:58:13;;;;;;;5.78;3.60;;;;;;;23.37;58.02;100886.80;1672639;85;21387;-60
2021/08/04 07:01:19;;;;;;;5.08;3.10;;;;;;;23.47;57.76;100887.56;1668948;85;21300;-62
2021/08/04 07:04:26;;;;;;;3.33;2.62;;;;;;;23.53;56.66;100883.23;1669128;86;21244;-60
2021/08/04 07:07:34;;;;;;;3.87;2.70;;;;;;;23.64;54.92;100885.70;1670111;85;21880;-60
2021/08/04 07:10:41;;;;;;;4.50;2.90;;;;;;;23.75;53.14;100881.16;1670124;83;21237;-60
2021/08/04 07:13:50;;;;;;;3.30;2.50;;;;;;;23.84;53.09;100879.64;1677151;83;21423;-60
2021/08/04 07:17:02;;;;;;;3.42;2.30;;;;;;;23.93;53.34;100877.59;1643867;87;21290;-60
2021/08/04 07:20:09;;;;;;;6.42;3.67;;;;;;;24.03;53.38;100882.02;1626218;87;21222;-61
2021/08/04 07:23:15;;;;;;;6.45;3.10;;;;;;;24.12;51.93;100879.09;1643688;87;21395;-59
2021/08/04 07:26:21;;;;;;;5.62;2.83;;;;;;;24.17;52.01;100881.99;1643770;86;21203;-60
2021/08/04 07:29:28;;;;;;;6.03;3.30;;;;;;;24.21;51.99;100888.80;1644019;87;21265;-60
2021/08/04 07:32:37;;;;;;;5.97;2.77;;;;;;;24.29;51.60;100891.72;1643909;87;21897;-61
2021/08/04 07:35:46;;;;;;;4.78;2.85;;;;;;;24.35;50.91;100891.56;1644194;87;21400;-61
2021/08/04 07:38:52;;;;;;;4.97;2.67;;;;;;;24.41;49.66;100894.73;1631052;85;21464;-59
2021/08/04 07:42:00;;;;;;;4.35;2.70;;;;;;;24.46;49.47;100896.23;1656174;85;21400;-60
2021/08/04 07:45:08;;;;;;;3.90;2.58;;;;;;;24.54;49.20;100893.01;1713186;83;21217;-61
2021/08/04 07:48:15;;;;;;;3.77;2.67;;;;;;;24.64;48.68;100896.53;1720986;83;21229;-60
2021/08/04 07:51:26;;;;;;;4.17;2.60;;;;;;;24.74;48.65;100899.50;1720918;83;21295;-60
2021/08/04 07:54:30;;;;;;;5.25;2.95;;;;;;;24.81;47.74;100895.45;1634922;84;21225;-60
2021/08/04 07:57:41;;;;;;;3.80;2.50;;;;;;;24.88;47.63;100892.44;1676758;84;21371;-58
2021/08/04 08:00:48;;;;;;;4.12;2.40;;;;;;;24.90;47.48;100891.09;1657508;85;21440;-59
2021/08/04 08:03:55;;;;;;;3.20;2.22;;;;;;;24.95;48.09;100888.37;1670706;85;21239;-59
2021/08/04 08:07:02;;;;;;;9.00;2.52;;;;;;;25.02;47.92;100897.42;1696441;83;21375;-60
2021/08/04 08:10:14;;;;;;;2.87;2.35;;;;;;;25.11;46.62;100894.19;1681380;84;21902;-59
2021/08/04 08:13:22;;;;;;;5.12;2.62;;;;;;;25.17;45.31;100888.39;1746012;80;21879;-59
2021/08/04 08:16:29;;;;;;;3.40;2.40;;;;;;;25.27;45.35;100888.55;1683402;83;21270;-60
2021/08/04 08:19:39;;;;;;;3.00;2.70;;;;;;;25.36;44.97;100886.15;1688904;84;21876;-59
2021/08/04 08:22:51;;;;;;;3.02;2.30;;;;;;;25.44;44.29;100885.70;1662939;83;21256;-59
2021/08/04 08:25:58;;;;;;;3.33;2.10;;;;;;;25.50;44.08;100870.66;1676069;85;21217;-60
2021/08/04 08:29:08;;;;;;;3.02;2.35;;;;;;;25.58;44.00;100882.78;1636356;87;21317;-60
2021/08/04 08:32:15;;;;;;;3.37;2.40;;;;;;;25.66;43.98;100876.72;1635068;87;21789;-60
2021/08/04 08:35:24;;;;;;;3.15;2.22;;;;;;;25.69;44.46;100868.63;1632011;86;21335;-60
2021/08/04 08:38:30;;;;;;;3.35;2.60;;;;;;;25.73;44.24;100867.02;1615280;88;21822;-60
2021/08/04 08:41:34;;;;;;;6.50;2.80;;;;;;;25.85;44.44;100869.09;1620337;88;21398;-60
2021/08/04 08:44:42;;;;;;;3.80;2.33;;;;;;;26.00;44.50;100865.64;1638142;87;21281;-61
2021/08/04 08:47:52;;;;;;;4.30;2.25;;;;;;;26.12;44.10;100866.31;1628431;85;21232;-59
2021/08/04 08:50:59;;;;;;;2.27;2.08;;;;;;;26.18;43.20;100862.43;1613074;87;21289;-60
2021/08/04 08:54:10;;;;;;;6.28;2.33;;;;;;;26.20;42.54;100868.63;1607065;89;21257;-59
2021/08/04 08:57:15;;;;;;;2.87;2.20;;;;;;;26.12;41.57;100865.77;1611891;87;21280;-60
2021/08/04 09:00:23;;;;;;;3.90;1.98;;;;;;;26.06;41.12;100871.05;1615846;87;21247;-60
2021/08/04 09:03:30;;;;;;;2.98;1.98;;;;;;;26.12;41.13;100864.91;1638101;87;21607;-61
2021/08/04 09:07:02;;;;;;;2.50;2.05;;;;;;;26.25;41.15;100863.07;1661796;85;21240;-60
2021/08/04 09:10:12;;;;;;;3.87;2.27;;;;;;;26.38;41.35;100859.83;1641375;86;21227;-61
2021/08/04 09:13:20;;;;;;;3.55;2.02;;;;;;;26.40;40.87;100858.43;1624340;87;22054;-60
2021/08/04 09:16:31;;;;;;;4.28;2.30;;;;;;;26.41;40.08;100860.69;1671740;82;21641;-60
2021/08/04 09:19:33;;;;;;;5.10;2.15;;;;;;;26.45;39.69;100854.81;1664994;86;21254;-60
2021/08/04 09:22:40;;;;;;;4.97;2.00;;;;;;;26.51;39.15;100856.58;1720443;83;21743;-59
2021/08/04 09:25:49;;;;;;;4.12;2.08;;;;;;;26.62;39.39;100854.68;1665796;84;21383;-60
2021/08/04 09:29:12;;;;;;;3.08;2.05;;;;;;;26.78;38.90;100854.56;1650821;85;21271;-60
2021/08/04 09:32:22;;;;;;;3.85;1.90;;;;;;;26.96;38.49;100852.70;1719853;83;21319;-59
2021/08/04 09:35:31;;;;;;;3.52;1.90;;;;;;;27.10;38.19;100842.65;1720202;83;21218;-59
2021/08/04 09:38:37;;;;;;;3.95;2.10;;;;;;;27.14;37.24;100844.36;1694835;83;21228;-59
2021/08/04 09:41:44;;;;;;;2.45;1.90;;;;;;;27.06;37.38;100833.09;1690712;85;21600;-59
2021/08/04 09:45:01;;;;;;;2.02;1.70;;;;;;;27.04;37.82;100829.69;1705475;82;21751;-60
2021/08/04 09:48:13;;;;;;;4.22;1.85;;;;;;;27.01;38.21;100827.98;1709517;82;21229;-59
2021/08/04 09:51:22;;;;;;;3.42;1.90;;;;;;;27.10;37.88;100824.95;1694788;82;21232;-59
2021/08/04 09:54:30;;;;;;;1.90;1.53;;;;;;;27.20;37.65;100820.22;1684752;83;21192;-60
2021/08/04 09:57:55;;;;;;;2.98;1.67;;;;;;;27.35;37.49;100810.45;1686573;82;21810;-60
2021/08/04 10:01:00;;;;;;;3.75;1.92;;;;;;;27.52;36.85;100812.51;1666638;83;21403;-59
2021/08/04 10:04:18;;;;;;;2.47;1.72;;;;;;;27.62;35.37;100811.11;1642047;87;21211;-60
2021/08/04 10:07:24;;;;;;;2.10;1.90;;;;;;;27.64;35.26;100806.61;1660226;84;21366;-60
2021/08/04 10:10:31;;;;;;;4.08;2.00;;;;;;;27.72;36.17;100801.84;1655464;84;21306;-59
2021/08/04 10:13:42;;;;;;;2.92;2.05;;;;;;;27.88;35.87;100793.75;1660127;84;21250;-60
2021/08/04 10:16:48;;;;;;;2.15;1.90;;;;;;;27.97;35.00;100800.53;1682602;81;21545;-61
2021/08/04 10:19:54;;;;;;;2.50;2.30;;;;;;;27.96;34.94;100799.37;1675123;84;21194;-60
2021/08/04 10:23:02;;;;;;;2.10;1.70;;;;;;;27.89;34.83;100799.68;1663791;86;21192;-61
2021/08/04 10:26:06;;;;;;;2.47;1.72;;;;;;;27.81;34.87;100801.61;1650860;86;21617;-59
2021/08/04 10:29:13;;;;;;;4.22;2.10;;;;;;;27.69;34.21;100789.74;1661952;84;21294;-59
2021/08/04 10:32:20;;;;;;;4.35;1.60;;;;;;;27.71;33.83;100779.06;1657014;85;21209;-61
2021/08/04 10:35:26;;;;;;;3.47;1.50;;;;;;;27.80;33.54;100778.78;1623392;88;21384;-61
2021/08/04 10:38:33;;;;;;;2.30;1.50;;;;;;;27.91;33.75;100781.92;1625660;87;21266;-61
2021/08/04 10:41:42;;;;;;;2.15;1.90;;;;;;;27.99;34.11;100779.97;1592404;89;21402;-60
2021/08/04 10:44:48;;;;;;;2.83;1.70;;;;;;;28.06;34.17;100781.95;1634990;85;21330;-60
2021/08/04 10:47:59;;;;;;;4.37;1.80;;;;;;;28.23;34.20;100778.84;1649181;86;21223;-62
2021/08/04 10:51:20;;;;;;;2.20;2.00;;;;;;;28.42;33.77;100772.91;1648226;86;21841;-62
2021/08/04 10:54:30;;;;;;;1.90;1.47;;;;;;;28.56;33.19;100771.25;1638440;87;21783;-58
2021/08/04 10:57:40;;;;;;;2.25;1.80;;;;;;;28.62;33.32;100768.70;1585763;88;21270;-59
2021/08/04 11:00:48;;;;;;;1.70;1.50;;;;;;;28.66;33.14;100772.63;1589894;90;21275;-60
2021/08/04 11:03:55;;;;;;;4.17;1.85;;;;;;;28.68;32.59;100780.23;1613413;88;21270;-60
2021/08/04 11:07:22;;;;;;;2.70;1.72;;;;;;;28.62;33.15;100785.02;1613445;89;21265;-60
2021/08/04 11:10:28;;;;;;;2.05;1.65;;;;;;;28.73;32.89;100785.87;1614657;87;21250;-58
2021/08/04 11:14:02;;;;;;;2.30;2.10;;;;;;;28.98;32.56;100786.64;1606739;89;21266;-58
2021/08/04 11:17:10;;;;;;;2.05;1.50;;;;;;;29.18;32.35;100791.38;1593469;88;21261;-62
2021/08/04 11:20:16;;;;;;;4.72;1.77;;;;;;;29.18;32.15;100793.64;1650941;84;21299;-61
2021/08/04 11:23:23;;;;;;;2.60;1.80;;;;;;;29.17;32.45;100782.64;1647245;85;21672;-60
2021/08/04 11:26:39;;;;;;;3.17;1.70;;;;;;;29.24;32.26;100792.48;1649896;85;21220;-60
2021/08/04 11:29:53;;;;;;;1.82;1.62;;;;;;;29.27;32.06;100789.66;1636753;85;21732;-59
2021/08/04 11:33:27;;;;;;;3.27;1.82;;;;;;;29.31;32.16;100786.53;1654385;85;21219;-60
2021/08/04 11:36:38;;;;;;;3.35;1.67;;;;;;;29.48;32.16;100779.13;1655353;86;21294;-61
2021/08/04 11:40:05;;;;;;;3.22;2.12;;;;;;;29.69;31.59;100782.96;1665912;85;21235;-61
2021/08/04 11:43:10;;;;;;;3.62;1.85;;;;;;;29.86;32.16;100781.17;1666050;84;21758;-60
2021/08/04 11:46:34;;;;;;;3.40;1.77;;;;;;;30.04;30.79;100777.62;1650275;85;21301;-60
2021/08/04 11:49:49;;;;;;;3.65;1.60;;;;;;;30.12;30.87;100775.02;1653503;85;21300;-59
2021/08/04 11:52:54;;;;;;;;;;;;;;;30.25;31.11;100768.73;1655208;87;21602;-60
2021/08/04 11:56:01;;;;;;;6.30;1.70;;;;;;;30.48;30.02;100762.28;1640052;85;20207;-60
2021/08/04 11:59:12;;;;;;;2.92;1.67;;;;;;;30.48;30.02;100762.28;1655747;85;21199;-60
2021/08/04 12:02:31;;;;;;;3.65;1.70;;;;;;;30.64;29.42;100760.98;1662069;86;21879;-60
2021/08/04 12:05:38;;;;;;;2.33;1.90;;;;;;;30.77;29.30;100751.55;1650039;86;21288;-60
2021/08/04 12:08:47;;;;;;;2.35;1.50;;;;;;;30.87;30.28;100755.68;1669456;84;22057;-60
2021/08/04 12:11:53;;;;;;;3.08;1.82;;;;;;;31.02;30.76;100746.43;1669505;83;21201;-60
2021/08/04 12:15:00;;;;;;;1.98;1.40;;;;;;;31.11;28.34;100745.20;1655717;84;21258;-62
2021/08/04 12:18:12;;;;;;;2.55;1.65;;;;;;;31.15;28.17;100745.70;1669993;83;21226;-61
2021/08/04 12:21:23;;;;;;;2.37;1.60;;;;;;;31.11;28.05;100744.61;1726049;82;21383;-60
2021/08/04 12:24:30;;;;;;;3.90;1.67;;;;;;;31.05;28.27;100742.99;1721921;82;21216;-60
2021/08/04 12:27:46;;;;;;;3.08;1.40;;;;;;;31.07;29.19;100739.30;1659801;85;21224;-59
2021/08/04 12:30:54;;;;;;;2.20;1.50;;;;;;;31.10;28.96;100739.25;1705241;82;21370;-62
2021/08/04 12:34:07;;;;;;;2.00;1.45;;;;;;;31.08;28.65;100738.14;1708419;82;21195;-60
2021/08/04 12:37:10;;;;;;;1.52;1.35;;;;;;;31.03;28.63;100735.97;1744986;82;21180;-60
2021/08/04 12:40:19;;;;;;;2.70;1.92;;;;;;;30.98;28.49;100731.22;1706634;83;21225;-60
2021/08/04 12:43:24;;;;;;;3.80;2.15;;;;;;;30.87;28.44;100735.87;1634210;85;21209;-61
2021/08/04 12:46:37;;;;;;;3.67;1.75;;;;;;;30.64;28.48;100736.95;1728341;83;21363;-58
2021/08/04 12:49:47;;;;;;;6.78;2.62;;;;;;;30.44;29.67;100738.59;1656958;86;21251;-62
2021/08/04 12:52:55;;;;;;;8.83;4.65;;;;;;;30.24;29.66;100740.19;1700870;83;21415;-62
2021/08/04 12:56:12;;;;;;;7.22;3.15;;;;;;;30.01;29.40;100745.17;1702714;83;21252;-61
2021/08/04 12:59:22;;;;;;;3.62;2.30;;;;;;;29.86;29.41;100733.98;1722443;82;21386;-60
2021/08/04 13:02:29;;;;;;;2.25;1.70;;;;;;;29.76;29.62;100729.00;1728264;83;21411;-61
2021/08/04 13:05:36;;;;;;;2.47;1.37;;;;;;;29.66;29.98;100731.89;1657155;86;21340;-62
2021/08/04 13:08:44;;;;;;;2.35;1.50;;;;;;;29.59;29.65;100735.00;1628843;88;21891;-60
2021/08/04 13:11:52;;;;;;;2.65;1.75;;;;;;;29.57;29.73;100737.30;1699114;83;21908;-60
2021/08/04 13:15:23;;;;;;;4.08;1.98;;;;;;;29.60;29.64;100722.59;1684013;85;21381;-59
2021/08/04 13:18:33;;;;;;;2.15;1.50;;;;;;;29.60;29.64;100722.59;1674355;83;21420;-59
2021/08/04 13:21:39;;;;;;;2.85;1.60;;;;;;;29.67;30.34;100723.12;1671409;85;21278;-59
2021/08/04 13:24:45;;;;;;;3.92;1.50;;;;;;;29.71;30.19;100724.24;1652648;84;21251;-59
2021/08/04 13:28:15;;;;;;;3.65;1.50;;;;;;;29.78;30.42;100723.32;1659740;86;21310;-59
2021/08/04 13:31:25;;;;;;;3.50;2.22;;;;;;;29.82;30.00;100720.20;1681147;84;21328;-60
2021/08/04 13:34:30;;;;;;;4.55;1.77;;;;;;;29.88;30.10;100729.45;1690509;84;21289;-59
2021/08/04 13:37:36;;;;;;;1.90;1.40;;;;;;;29.85;29.00;100721.58;1669432;85;22063;-60
2021/08/04 13:40:42;;;;;;;2.15;1.30;;;;;;;29.85;29.00;100721.58;1701880;83;21237;-60
2021/08/04 13:43:48;;;;;;;1.98;1.30;;;;;;;29.86;29.91;100715.64;1698598;84;21793;-60
2021/08/04 13:46:55;;;;;;;1.45;1.35;;;;;;;29.93;30.17;100716.72;1709195;83;21271;-60
2021/08/04 13:50:05;;;;;;;2.50;1.57;;;;;;;29.93;30.17;100716.72;1699464;83;21204;-60
2021/08/04 13:53:12;;;;;;;1.50;1.20;;;;;;;29.97;29.40;100718.65;1650881;86;21209;-59
2021/08/04 13:56:19;;;;;;;1.90;1.40;;;;;;;30.05;29.32;100716.60;1719908;83;21371;-60
2021/08/04 13:59:24;;;;;;;1.85;1.45;;;;;;;30.04;29.39;100699.39;1723741;83;21216;-60
2021/08/04 14:02:32;;;;;;;3.37;1.62;;;;;;;30.05;30.20;100702.48;1695372;84;21245;-59
2021/08/04 14:05:39;;;;;;;3.10;1.40;;;;;;;30.05;30.66;100705.90;1713064;83;21806;-60
2021/08/04 14:08:44;;;;;;;7.47;1.70;;;;;;;30.00;30.37;100698.28;1714822;82;21328;-58
2021/08/04 14:11:50;;;;;;;1.95;1.55;;;;;;;29.93;30.26;100700.63;1703393;83;21339;-60
2021/08/04 14:14:57;;;;;;;2.87;1.72;;;;;;;29.86;29.68;100702.11;1732991;82;21701;-58
2021/08/04 14:18:06;;;;;;;3.60;1.87;;;;;;;29.71;30.60;100694.60;1707274;83;21746;-60
2021/08/04 14:21:11;;;;;;;1.92;1.30;;;;;;;29.71;30.60;100694.60;1720377;80;21551;-59
2021/08/04 14:24:18;;;;;;;2.25;1.30;;;;;;;29.52;29.78;100700.64;1708684;83;21781;-59
2021/08/04 14:27:23;;;;;;;1.57;1.27;;;;;;;29.44;29.92;100694.20;1706094;82;21182;-59
2021/08/04 14:30:29;;;;;;;3.77;1.35;;;;;;;29.44;29.92;100694.20;1715353;82;21308;-59
2021/08/04 14:33:35;;;;;;;3.62;1.65;;;;;;;29.39;30.49;100699.88;1709047;82;21233;-59
2021/08/04 14:36:41;;;;;;;1.60;1.40;;;;;;;29.31;30.94;100701.89;1707024;83;21229;-60